Time;durP1;ratioP1;P1;durP2;ratioP2;P2;SDS_P1;SDS_P2;PMS_P1;PMS_P2;Temp;Humidity;BMP_temperature;BMP_pressure;BME280_temperature;BME280_humidity;BME280_pressure;Samples;Min_cycle;Max_cycle;Signal;HPM_P1;HPM_P2
2023/06/24 00:00:57;;;;;;;5.88;5.47;;;;;;;;;;5033034;28;20460;-77
2023/06/24 00:03:23;;;;;;;6.45;5.95;;;;;;;;;;5032720;28;20041;-77
2023/06/24 00:05:49;;;;;;;6.13;5.72;;;;;;;;;;5016354;28;20045;-77
2023/06/24 00:08:19;;;;;;;6.07;5.78;;;;;;;;;;5033948;28;20041;-77
2023/06/24 00:10:46;;;;;;;5.72;5.32;;;;;;;;;;5001309;28;20095;-77
2023/06/24 00:13:13;;;;;;;5.80;5.50;;;;;;;;;;5032916;28;20136;-77
2023/06/24 00:15:42;;;;;;;7.25;6.75;;;;;;;;;;5016515;28;20512;-77
2023/06/24 00:18:12;;;;;;;6.35;5.75;;;;;;;;;;5016649;28;20091;-76
2023/06/24 00:20:38;;;;;;;6.15;5.75;;;;;;;;;;5033076;28;20038;-77
2023/06/24 00:23:04;;;;;;;6.25;5.88;;;;;;;;;;5032051;28;20057;-76
2023/06/24 00:25:30;;;;;;;5.95;5.47;;;;;;;;;;5032710;28;20156;-77
2023/06/24 00:27:57;;;;;;;5.88;5.55;;;;;;;;;;5032970;28;20397;-77
2023/06/24 00:30:23;;;;;;;6.57;5.85;;;;;;;;;;5032683;28;20396;-76
2023/06/24 00:32:49;;;;;;;6.28;5.88;;;;;;;;;;5033196;28;20041;-74
2023/06/24 00:35:15;;;;;;;5.68;5.35;;;;;;;;;;5033557;28;20056;-74
2023/06/24 00:37:42;;;;;;;5.80;5.40;;;;;;;;;;5015771;28;20069;-74
2023/06/24 00:40:10;;;;;;;6.18;5.85;;;;;;;;;;5032766;28;20056;-74
2023/06/24 00:42:36;;;;;;;6.72;6.20;;;;;;;;;;5033402;28;20103;-74
2023/06/24 00:45:04;;;;;;;6.25;5.72;;;;;;;;;;5033382;28;20084;-74
2023/06/24 00:47:31;;;;;;;5.75;5.35;;;;;;;;;;5033709;28;20459;-74
2023/06/24 00:49:57;;;;;;;6.05;5.75;;;;;;;;;;5033204;28;20092;-74
2023/06/24 00:52:24;;;;;;;7.03;6.50;;;;;;;;;;5033281;28;20095;-74
2023/06/24 00:54:50;;;;;;;6.85;6.35;;;;;;;;;;5032618;28;20041;-74
2023/06/24 00:57:17;;;;;;;6.75;6.35;;;;;;;;;;5032296;28;20049;-74
2023/06/24 00:59:44;;;;;;;6.72;6.22;;;;;;;;;;5032059;28;20553;-74
2023/06/24 01:02:10;;;;;;;6.43;6.10;;;;;;;;;;5032130;28;20050;-74
2023/06/24 01:04:37;;;;;;;6.57;6.18;;;;;;;;;;5032545;28;20052;-74
2023/06/24 01:07:04;;;;;;;7.72;7.22;;;;;;;;;;5016383;28;20057;-75
2023/06/24 01:09:30;;;;;;;6.55;6.15;;;;;;;;;;5015332;28;20050;-74
2023/06/24 01:11:56;;;;;;;7.10;6.68;;;;;;;;;;5032994;28;20042;-74
2023/06/24 01:14:22;;;;;;;6.82;6.43;;;;;;;;;;5015684;28;20061;-74
2023/06/24 01:16:48;;;;;;;7.60;7.00;;;;;;;;;;5032681;28;20531;-74
2023/06/24 01:19:33;;;;;;;7.45;6.85;;;;;;;;;;5015431;28;20124;-74
2023/06/24 01:22:11;;;;;;;7.53;7.10;;;;;;;;;;5032872;28;20515;-74
2023/06/24 01:24:56;;;;;;;7.38;6.95;;;;;;;;;;5033170;28;20097;-74
2023/06/24 01:27:33;;;;;;;7.03;6.63;;;;;;;;;;5033284;28;20532;-74
2023/06/24 01:30:00;;;;;;;7.78;7.10;;;;;;;;;;5037282;28;20049;-74
2023/06/24 01:32:29;;;;;;;7.22;6.80;;;;;;;;;;5035377;28;20501;-74
2023/06/24 01:34:55;;;;;;;7.43;7.03;;;;;;;;;;5036549;28;20136;-74
2023/06/24 01:37:42;;;;;;;7.75;7.25;;;;;;;;;;5036495;28;20092;-74
2023/06/24 01:40:13;;;;;;;8.18;7.57;;;;;;;;;;5035199;28;20064;-74
2023/06/24 01:42:40;;;;;;;8.52;7.93;;;;;;;;;;5035276;28;20052;-74
2023/06/24 01:45:07;;;;;;;7.78;7.28;;;;;;;;;;5035203;28;20172;-74
2023/06/24 01:47:34;;;;;;;7.78;7.38;;;;;;;;;;5019095;28;20088;-74
2023/06/24 01:50:02;;;;;;;9.07;8.25;;;;;;;;;;5036569;28;20148;-74
2023/06/24 01:52:30;;;;;;;9.70;9.00;;;;;;;;;;5036196;28;20049;-74
2023/06/24 01:54:56;;;;;;;8.85;8.00;;;;;;;;;;5035211;28;20042;-74
2023/06/24 01:57:23;;;;;;;7.75;7.25;;;;;;;;;;5035187;28;20396;-74
2023/06/24 01:59:51;;;;;;;9.00;8.43;;;;;;;;;;5035126;28;20089;-74
2023/06/24 02:02:20;;;;;;;8.73;8.13;;;;;;;;;;5035154;28;20048;-74
2023/06/24 02:04:46;;;;;;;8.30;7.68;;;;;;;;;;5035867;28;20052;-74
2023/06/24 02:07:13;;;;;;;8.95;8.38;;;;;;;;;;5035952;28;20053;-74
2023/06/24 02:09:39;;;;;;;7.93;7.28;;;;;;;;;;5035983;28;20045;-74
2023/06/24 02:12:06;;;;;;;8.30;7.70;;;;;;;;;;5035926;28;20041;-74
2023/06/24 02:14:33;;;;;;;10.02;9.15;;;;;;;;;;5034696;28;20515;-74
2023/06/24 02:17:00;;;;;;;9.43;8.63;;;;;;;;;;5035634;28;20053;-74
2023/06/24 02:19:29;;;;;;;9.45;8.77;;;;;;;;;;5035737;28;20057;-74
2023/06/24 02:21:57;;;;;;;8.88;8.18;;;;;;;;;;5034278;28;20037;-74
2023/06/24 02:24:23;;;;;;;9.13;8.38;;;;;;;;;;5034475;28;20481;-74
2023/06/24 02:26:50;;;;;;;9.52;8.80;;;;;;;;;;5034654;28;20046;-74
2023/06/24 02:29:17;;;;;;;8.68;8.10;;;;;;;;;;5035577;28;20132;-74
2023/06/24 02:31:43;;;;;;;9.45;8.85;;;;;;;;;;5034531;28;20065;-74
2023/06/24 02:34:09;;;;;;;8.85;8.30;;;;;;;;;;5034771;28;20041;-74
2023/06/24 02:36:35;;;;;;;9.70;9.02;;;;;;;;;;5017975;28;20140;-74
2023/06/24 02:39:01;;;;;;;9.93;9.23;;;;;;;;;;5034277;28;20084;-75
2023/06/24 02:41:28;;;;;;;10.10;9.27;;;;;;;;;;5034049;28;20456;-75
2023/06/24 02:43:54;;;;;;;9.85;9.05;;;;;;;;;;5035283;28;20046;-74
2023/06/24 02:46:21;;;;;;;10.85;10.00;;;;;;;;;;5035038;28;20135;-74
2023/06/24 02:48:48;;;;;;;10.40;9.65;;;;;;;;;;5035721;28;20192;-74
2023/06/24 02:51:15;;;;;;;10.23;9.55;;;;;;;;;;5035331;28;20372;-74
2023/06/24 02:53:41;;;;;;;11.60;10.85;;;;;;;;;;5034155;28;20068;-74
2023/06/24 02:56:09;;;;;;;10.45;9.75;;;;;;;;;;5017616;28;20049;-74
2023/06/24 02:58:38;;;;;;;11.40;10.60;;;;;;;;;;5033963;28;20129;-74
2023/06/24 03:01:08;;;;;;;11.48;10.57;;;;;;;;;;5034779;28;20057;-74
2023/06/24 03:03:35;;;;;;;10.43;9.70;;;;;;;;;;5017486;28;20088;-74
2023/06/24 03:06:02;;;;;;;11.00;10.30;;;;;;;;;;5033865;28;20049;-74
2023/06/24 03:08:29;;;;;;;11.18;10.48;;;;;;;;;;5018197;28;20049;-74
2023/06/24 03:10:56;;;;;;;12.02;11.15;;;;;;;;;;5035303;28;20073;-74
2023/06/24 03:13:22;;;;;;;12.00;11.20;;;;;;;;;;5034027;28;20061;-74
2023/06/24 03:15:48;;;;;;;14.07;12.88;;;;;;;;;;5033415;28;20057;-74
2023/06/24 03:18:15;;;;;;;12.68;11.57;;;;;;;;;;5034608;28;20085;-74
2023/06/24 03:20:41;;;;;;;13.48;12.48;;;;;;;;;;5033616;28;20057;-74
2023/06/24 03:23:08;;;;;;;12.85;11.95;;;;;;;;;;5034499;28;20065;-74
2023/06/24 03:25:34;;;;;;;13.48;12.57;;;;;;;;;;5034446;28;20111;-74
2023/06/24 03:28:00;;;;;;;13.57;12.68;;;;;;;;;;5034723;28;20501;-74
2023/06/24 03:30:27;;;;;;;13.00;12.00;;;;;;;;;;5033237;28;20049;-74
2023/06/24 03:32:53;;;;;;;14.77;13.63;;;;;;;;;;5035162;28;20041;-74
2023/06/24 03:35:19;;;;;;;14.27;12.95;;;;;;;;;;5034897;28;20049;-74
2023/06/24 03:37:45;;;;;;;13.05;11.95;;;;;;;;;;5033336;28;20049;-74
2023/06/24 03:40:11;;;;;;;13.30;12.40;;;;;;;;;;5034286;28;20093;-74
2023/06/24 03:42:37;;;;;;;13.15;12.23;;;;;;;;;;5033012;28;20442;-74
2023/06/24 03:45:04;;;;;;;13.07;12.05;;;;;;;;;;5034114;28;20133;-74
2023/06/24 03:47:30;;;;;;;13.32;12.23;;;;;;;;;;5033210;28;20076;-74
2023/06/24 03:49:56;;;;;;;14.30;13.10;;;;;;;;;;5033860;28;20107;-74
2023/06/24 03:52:22;;;;;;;14.10;13.00;;;;;;;;;;5032690;28;20056;-74
2023/06/24 03:54:48;;;;;;;13.43;12.43;;;;;;;;;;5034018;28;20080;-74
2023/06/24 03:57:14;;;;;;;13.15;12.05;;;;;;;;;;5033946;28;20045;-74
2023/06/24 03:59:40;;;;;;;13.98;12.75;;;;;;;;;;5033971;28;20053;-74
2023/06/24 04:02:09;;;;;;;13.80;12.63;;;;;;;;;;5033713;28;20042;-74
2023/06/24 04:04:36;;;;;;;13.93;12.82;;;;;;;;;;5016616;28;20045;-74
2023/06/24 04:07:02;;;;;;;13.18;12.13;;;;;;;;;;5017179;28;20054;-74
2023/06/24 04:09:30;;;;;;;14.13;13.00;;;;;;;;;;5033761;28;20070;-74
2023/06/24 04:11:56;;;;;;;13.48;12.38;;;;;;;;;;5032772;28;20053;-74
2023/06/24 04:14:22;;;;;;;13.95;12.93;;;;;;;;;;5033710;28;20136;-74
2023/06/24 04:16:48;;;;;;;12.98;11.75;;;;;;;;;;5033488;28;20045;-74
2023/06/24 04:19:14;;;;;;;13.05;12.15;;;;;;;;;;5033641;28;20054;-74
2023/06/24 04:21:40;;;;;;;13.15;11.90;;;;;;;;;;5032493;28;20041;-74
2023/06/24 04:24:06;;;;;;;13.55;12.45;;;;;;;;;;5032427;28;20049;-74
2023/06/24 04:26:32;;;;;;;13.07;11.75;;;;;;;;;;5032837;28;20064;-74
2023/06/24 04:28:58;;;;;;;12.90;11.93;;;;;;;;;;5033332;28;20049;-75
2023/06/24 04:31:25;;;;;;;12.38;11.40;;;;;;;;;;5032545;28;20046;-75
2023/06/24 04:33:51;;;;;;;11.80;10.75;;;;;;;;;;5032362;28;20057;-74
2023/06/24 04:36:17;;;;;;;11.65;10.65;;;;;;;;;;5032506;28;20497;-75
2023/06/24 04:38:43;;;;;;;10.70;9.85;;;;;;;;;;5016053;28;20049;-74
2023/06/24 04:41:09;;;;;;;11.63;10.63;;;;;;;;;;5034008;28;20046;-74
2023/06/24 04:43:35;;;;;;;11.25;10.25;;;;;;;;;;5032112;28;20054;-74
2023/06/24 04:46:02;;;;;;;11.23;10.43;;;;;;;;;;5032636;28;20053;-75
2023/06/24 04:48:28;;;;;;;11.70;10.80;;;;;;;;;;5032367;28;20056;-74
2023/06/24 04:50:54;;;;;;;11.57;10.57;;;;;;;;;;5033141;28;20046;-74
2023/06/24 04:53:21;;;;;;;11.32;10.43;;;;;;;;;;5033046;28;20358;-74
2023/06/24 04:55:47;;;;;;;12.57;11.38;;;;;;;;;;5032593;28;20096;-74
2023/06/24 04:58:13;;;;;;;11.98;10.98;;;;;;;;;;5032292;28;20068;-74
2023/06/24 05:00:39;;;;;;;10.52;9.82;;;;;;;;;;5032932;28;20523;-74
2023/06/24 05:03:05;;;;;;;11.38;10.43;;;;;;;;;;5034561;28;20045;-74
2023/06/24 05:05:31;;;;;;;10.90;10.10;;;;;;;;;;5036348;28;20397;-74
2023/06/24 05:07:57;;;;;;;10.75;9.80;;;;;;;;;;5036608;28;20045;-74
2023/06/24 05:10:23;;;;;;;10.30;9.43;;;;;;;;;;5035842;28;20049;-74
2023/06/24 05:12:50;;;;;;;12.25;11.13;;;;;;;;;;5036317;28;20093;-74
2023/06/24 05:15:16;;;;;;;11.98;10.98;;;;;;;;;;5035949;28;20095;-74
2023/06/24 05:17:42;;;;;;;10.75;9.85;;;;;;;;;;5037399;28;20100;-74
2023/06/24 05:20:09;;;;;;;12.32;11.13;;;;;;;;;;5036874;28;20091;-74
2023/06/24 05:22:36;;;;;;;11.80;10.95;;;;;;;;;;5037101;28;20064;-74
2023/06/24 05:25:02;;;;;;;12.23;11.15;;;;;;;;;;5036614;28;20083;-74
2023/06/24 05:27:28;;;;;;;11.75;10.75;;;;;;;;;;5036780;28;20052;-74
2023/06/24 05:29:54;;;;;;;11.95;11.00;;;;;;;;;;5035667;28;20106;-74
2023/06/24 05:32:20;;;;;;;13.52;12.43;;;;;;;;;;5035937;28;20057;-74
2023/06/24 05:34:47;;;;;;;12.02;11.05;;;;;;;;;;5036245;28;20048;-74
2023/06/24 05:37:14;;;;;;;12.60;11.68;;;;;;;;;;5035537;28;20049;-74
2023/06/24 05:39:40;;;;;;;11.77;10.88;;;;;;;;;;5035540;28;20057;-75
2023/06/24 05:42:06;;;;;;;13.25;12.10;;;;;;;;;;5036403;28;20042;-74
2023/06/24 05:44:32;;;;;;;13.48;12.23;;;;;;;;;;5035557;28;20378;-74
2023/06/24 05:46:58;;;;;;;12.73;11.57;;;;;;;;;;5035402;28;20397;-74
2023/06/24 05:49:24;;;;;;;13.05;11.85;;;;;;;;;;5036202;28;20414;-74
2023/06/24 05:51:50;;;;;;;12.85;11.65;;;;;;;;;;5018818;28;20050;-75
2023/06/24 05:54:16;;;;;;;13.05;11.75;;;;;;;;;;5018870;28;20081;-75
2023/06/24 05:56:42;;;;;;;13.57;12.27;;;;;;;;;;5035498;28;20124;-75
2023/06/24 05:59:08;;;;;;;14.70;12.27;;;;;;;;;;5035731;28;20111;-75
2023/06/24 06:01:34;;;;;;;12.43;11.43;;;;;;;;;;5036003;28;20049;-75
2023/06/24 06:04:00;;;;;;;13.15;11.98;;;;;;;;;;5035092;28;20099;-75
2023/06/24 06:06:26;;;;;;;13.10;11.77;;;;;;;;;;5034765;28;20071;-75
2023/06/24 06:08:53;;;;;;;11.20;10.20;;;;;;;;;;5035021;28;20052;-75
2023/06/24 06:11:19;;;;;;;12.45;11.35;;;;;;;;;;5019167;28;20041;-75
2023/06/24 06:13:45;;;;;;;12.02;11.02;;;;;;;;;;5034676;28;20072;-75
2023/06/24 06:16:11;;;;;;;10.50;9.70;;;;;;;;;;5034928;28;20050;-75
2023/06/24 06:18:37;;;;;;;11.02;10.20;;;;;;;;;;5018319;28;20053;-75
2023/06/24 06:21:03;;;;;;;10.57;9.70;;;;;;;;;;5035683;28;20049;-80
2023/06/24 06:23:29;;;;;;;8.90;8.38;;;;;;;;;;5017692;28;20218;-75
2023/06/24 06:25:55;;;;;;;8.88;8.27;;;;;;;;;;5035535;28;20083;-74
2023/06/24 06:28:21;;;;;;;9.25;8.50;;;;;;;;;;5036189;28;20401;-76
2023/06/24 06:30:47;;;;;;;8.75;7.95;;;;;;;;;;5018353;28;20366;-75
2023/06/24 06:33:13;;;;;;;8.50;7.82;;;;;;;;;;5035357;28;20377;-75
2023/06/24 06:35:39;;;;;;;8.38;7.68;;;;;;;;;;5035309;28;20081;-75
2023/06/24 06:38:06;;;;;;;8.10;7.53;;;;;;;;;;5035492;28;20045;-75
2023/06/24 06:40:32;;;;;;;8.90;7.55;;;;;;;;;;5034453;28;20053;-75
2023/06/24 06:42:58;;;;;;;10.80;8.55;;;;;;;;;;5034146;28;20045;-76
2023/06/24 06:45:24;;;;;;;8.00;7.30;;;;;;;;;;5035877;28;20099;-75
2023/06/24 06:47:50;;;;;;;8.73;7.72;;;;;;;;;;5035271;28;20046;-75
2023/06/24 06:50:16;;;;;;;7.55;7.03;;;;;;;;;;5035040;28;20434;-75
2023/06/24 06:52:42;;;;;;;8.98;8.30;;;;;;;;;;5034099;28;20371;-75
2023/06/24 06:55:10;;;;;;;7.95;7.32;;;;;;;;;;5035122;28;20056;-75
2023/06/24 06:57:36;;;;;;;11.35;7.82;;;;;;;;;;5017573;28;20045;-75
2023/06/24 07:00:02;;;;;;;8.90;7.90;;;;;;;;;;5035504;28;20100;-75
2023/06/24 07:02:28;;;;;;;8.88;8.18;;;;;;;;;;5017323;28;20052;-75
2023/06/24 07:04:54;;;;;;;7.38;6.78;;;;;;;;;;5034395;28;20424;-75
2023/06/24 07:07:20;;;;;;;8.88;7.28;;;;;;;;;;5035710;28;20385;-75
2023/06/24 07:09:47;;;;;;;7.47;6.90;;;;;;;;;;5034641;28;20392;-77
2023/06/24 07:12:13;;;;;;;7.40;6.90;;;;;;;;;;5034815;28;20478;-75
2023/06/24 07:14:40;;;;;;;7.15;6.75;;;;;;;;;;5034556;28;20056;-75
2023/06/24 07:17:06;;;;;;;6.78;6.25;;;;;;;;;;5017365;28;20571;-75
2023/06/24 07:19:32;;;;;;;7.20;6.63;;;;;;;;;;5017219;28;20516;-75
2023/06/24 07:21:58;;;;;;;6.63;6.00;;;;;;;;;;5034288;28;20372;-75
2023/06/24 07:24:24;;;;;;;5.72;5.43;;;;;;;;;;5016513;28;20485;-75
2023/06/24 07:26:50;;;;;;;6.28;5.82;;;;;;;;;;5016640;28;20103;-76
2023/06/24 07:29:16;;;;;;;6.45;5.95;;;;;;;;;;5034519;28;20053;-76
2023/06/24 07:31:42;;;;;;;6.63;6.03;;;;;;;;;;5034995;28;20053;-76
2023/06/24 07:34:08;;;;;;;6.50;6.00;;;;;;;;;;5016716;28;20128;-75
2023/06/24 07:36:34;;;;;;;7.85;7.07;;;;;;;;;;5033302;28;20049;-75
2023/06/24 07:39:00;;;;;;;6.60;6.10;;;;;;;;;;5033229;28;20053;-75
2023/06/24 07:41:26;;;;;;;6.95;6.20;;;;;;;;;;5033301;28;20160;-75
2023/06/24 07:43:52;;;;;;;7.40;6.80;;;;;;;;;;5032986;28;20050;-76
2023/06/24 07:46:19;;;;;;;7.95;7.32;;;;;;;;;;5034187;28;20081;-75
2023/06/24 07:48:45;;;;;;;9.15;8.25;;;;;;;;;;5033162;28;20129;-75
2023/06/24 07:51:11;;;;;;;6.93;6.53;;;;;;;;;;5032723;28;20045;-75
2023/06/24 07:53:37;;;;;;;7.22;6.63;;;;;;;;;;5033393;28;20132;-75
2023/06/24 07:56:03;;;;;;;7.03;6.53;;;;;;;;;;5032825;28;20046;-75
2023/06/24 07:58:29;;;;;;;6.65;6.15;;;;;;;;;;5016631;28;20055;-75
2023/06/24 08:00:55;;;;;;;6.55;6.10;;;;;;;;;;5016573;28;20046;-75
2023/06/24 08:03:22;;;;;;;7.72;7.22;;;;;;;;;;5032703;28;20049;-75
2023/06/24 08:05:49;;;;;;;7.45;6.95;;;;;;;;;;5032941;28;20053;-75
2023/06/24 08:08:15;;;;;;;8.27;7.50;;;;;;;;;;5032872;28;20521;-75
2023/06/24 08:10:41;;;;;;;7.85;7.25;;;;;;;;;;5032821;28;20123;-76
2023/06/24 08:13:08;;;;;;;8.32;7.80;;;;;;;;;;5032867;28;20053;-75
2023/06/24 08:15:34;;;;;;;7.30;6.88;;;;;;;;;;5034241;28;20127;-75
2023/06/24 08:18:00;;;;;;;8.88;8.13;;;;;;;;;;5016302;28;20141;-75
2023/06/24 08:20:26;;;;;;;8.30;7.80;;;;;;;;;;5032544;28;20132;-76
2023/06/24 08:22:52;;;;;;;8.35;7.78;;;;;;;;;;5032772;28;20105;-75
2023/06/24 08:25:18;;;;;;;7.93;7.45;;;;;;;;;;5032657;28;20049;-75
2023/06/24 08:27:46;;;;;;;7.40;6.90;;;;;;;;;;5032580;28;20053;-76
2023/06/24 08:30:14;;;;;;;8.50;7.78;;;;;;;;;;5033427;28;20051;-75
2023/06/24 08:32:40;;;;;;;8.63;7.97;;;;;;;;;;5016317;28;20509;-75
2023/06/24 08:35:06;;;;;;;9.95;9.25;;;;;;;;;;5032595;28;20045;-75
2023/06/24 08:37:33;;;;;;;8.82;8.32;;;;;;;;;;5034603;28;20049;-75
2023/06/24 08:39:59;;;;;;;9.48;8.68;;;;;;;;;;5037639;28;20052;-75
2023/06/24 08:42:25;;;;;;;9.18;8.63;;;;;;;;;;5037575;28;20144;-75
2023/06/24 08:44:51;;;;;;;11.00;10.20;;;;;;;;;;5036928;28;20132;-75
2023/06/24 08:47:17;;;;;;;9.95;9.18;;;;;;;;;;5036616;28;20049;-76
2023/06/24 08:49:55;;;;;;;10.35;9.52;;;;;;;;;;5020092;28;20050;-76
2023/06/24 08:52:25;;;;;;;9.95;9.15;;;;;;;;;;5037679;28;20085;-76
2023/06/24 08:54:52;;;;;;;10.35;9.57;;;;;;;;;;5036715;28;20041;-75
2023/06/24 08:57:18;;;;;;;10.43;9.63;;;;;;;;;;5037365;28;20096;-76
2023/06/24 08:59:44;;;;;;;9.60;8.77;;;;;;;;;;5036316;28;20504;-75
2023/06/24 09:02:11;;;;;;;7.82;7.32;;;;;;;;;;5019751;28;20041;-76
2023/06/24 09:04:37;;;;;;;7.63;7.13;;;;;;;;;;5020059;28;20167;-75
2023/06/24 09:07:03;;;;;;;7.20;6.72;;;;;;;;;;5020487;28;20088;-76
2023/06/24 09:09:29;;;;;;;8.15;7.38;;;;;;;;;;5037157;28;20108;-76
2023/06/24 09:11:56;;;;;;;6.97;6.45;;;;;;;;;;5036112;28;20057;-75
2023/06/24 09:14:24;;;;;;;6.57;6.07;;;;;;;;;;5036070;28;20176;-75
2023/06/24 09:16:53;;;;;;;6.05;5.68;;;;;;;;;;5036269;28;20132;-75
2023/06/24 09:19:29;;;;;;;8.35;6.75;;;;;;;;;;5037750;28;20045;-75
2023/06/24 09:21:58;;;;;;;7.63;7.03;;;;;;;;;;5020096;28;20041;-76
2023/06/24 09:24:28;;;;;;;5.13;4.80;;;;;;;;;;5035796;28;20064;-76
2023/06/24 09:26:58;;;;;;;4.70;4.40;;;;;;;;;;5035529;28;20045;-75
2023/06/24 09:29:27;;;;;;;5.03;4.53;;;;;;;;;;5037359;28;20045;-76
2023/06/24 09:31:56;;;;;;;5.78;5.38;;;;;;;;;;5036587;28;20068;-76
2023/06/24 09:34:23;;;;;;;6.28;5.55;;;;;;;;;;5035731;28;20055;-76
2023/06/24 09:36:53;;;;;;;5.18;4.88;;;;;;;;;;5035401;28;20045;-76
2023/06/24 09:39:21;;;;;;;5.93;5.53;;;;;;;;;;5036887;28;20041;-76
2023/06/24 09:41:51;;;;;;;5.20;4.78;;;;;;;;;;5035504;28;20041;-76
2023/06/24 09:44:20;;;;;;;3.80;3.50;;;;;;;;;;5035814;28;20041;-76
2023/06/24 09:46:47;;;;;;;2.50;2.40;;;;;;;;;;5019280;28;20050;-76
2023/06/24 09:49:14;;;;;;;3.85;3.42;;;;;;;;;;5017984;28;20049;-77
2023/06/24 09:51:45;;;;;;;3.97;3.65;;;;;;;;;;5035292;28;20041;-76
2023/06/24 09:54:12;;;;;;;5.65;5.25;;;;;;;;;;5036362;28;20137;-76
2023/06/24 09:56:40;;;;;;;5.82;5.18;;;;;;;;;;5036480;28;20144;-76
2023/06/24 09:59:06;;;;;;;5.25;4.95;;;;;;;;;;5035188;28;20048;-76
2023/06/24 10:01:33;;;;;;;5.40;5.05;;;;;;;;;;5034891;28;20049;-76
2023/06/24 10:04:00;;;;;;;5.10;4.70;;;;;;;;;;5034853;28;20133;-76
2023/06/24 10:06:26;;;;;;;4.53;4.22;;;;;;;;;;5035097;28;20045;-76
2023/06/24 10:08:53;;;;;;;4.80;4.50;;;;;;;;;;5035905;28;20056;-76
2023/06/24 10:11:19;;;;;;;5.85;5.38;;;;;;;;;;5035908;28;20056;-76
2023/06/24 10:13:45;;;;;;;5.32;4.97;;;;;;;;;;5034779;28;20045;-76
2023/06/24 10:16:12;;;;;;;4.60;4.20;;;;;;;;;;5018417;28;20140;-77
2023/06/24 10:18:39;;;;;;;3.47;3.28;;;;;;;;;;5018487;28;20058;-76
2023/06/24 10:21:09;;;;;;;2.72;2.53;;;;;;;;;;5018340;28;20055;-76
2023/06/24 10:23:53;;;;;;;3.00;1.75;;;;;;;;;;5034390;28;20057;-76
2023/06/24 10:26:25;;;;;;;2.97;1.60;;;;;;;;;;5035051;28;20057;-77
2023/06/24 10:29:07;;;;;;;4.50;1.80;;;;;;;;;;5035503;28;20142;-76
2023/06/24 10:31:45;;;;;;;2.17;2.08;;;;;;;;;;5034663;28;20056;-76
2023/06/24 10:34:31;;;;;;;1.95;1.85;;;;;;;;;;5035634;28;20138;-76
2023/06/24 10:37:00;;;;;;;1.40;1.30;;;;;;;;;;5034844;28;20400;-76
2023/06/24 10:39:38;;;;;;;2.13;1.45;;;;;;;;;;5018021;28;20171;-76
2023/06/24 10:42:19;;;;;;;1.27;1.10;;;;;;;;;;5017991;28;20128;-76
2023/06/24 10:44:49;;;;;;;2.78;1.42;;;;;;;;;;5017961;28;20056;-76
2023/06/24 10:47:15;;;;;;;1.95;1.15;;;;;;;;;;5017878;28;20548;-77
2023/06/24 10:49:41;;;;;;;1.80;1.70;;;;;;;;;;5034057;28;20081;-76
2023/06/24 10:52:10;;;;;;;1.52;1.38;;;;;;;;;;5018117;28;20050;-76
2023/06/24 10:54:40;;;;;;;3.80;2.13;;;;;;;;;;5033920;28;20045;-77
2023/06/24 10:57:10;;;;;;;1.30;1.20;;;;;;;;;;5034476;28;20052;-77
2023/06/24 10:59:36;;;;;;;1.42;1.30;;;;;;;;;;5033838;28;20068;-77
2023/06/24 11:02:02;;;;;;;2.00;1.88;;;;;;;;;;5033990;28;20053;-76
2023/06/24 11:04:29;;;;;;;2.20;2.00;;;;;;;;;;5017837;28;20191;-76
2023/06/24 11:07:02;;;;;;;2.45;1.77;;;;;;;;;;5033814;28;20432;-76
2023/06/24 11:09:28;;;;;;;3.80;1.98;;;;;;;;;;5001293;28;20053;-76
2023/06/24 11:11:54;;;;;;;2.92;1.98;;;;;;;;;;5033890;28;20072;-76
2023/06/24 11:14:20;;;;;;;4.10;2.20;;;;;;;;;;5033920;28;20079;-76
2023/06/24 11:16:46;;;;;;;1.92;1.83;;;;;;;;;;5033859;28;20042;-77
2023/06/24 11:19:13;;;;;;;1.85;1.73;;;;;;;;;;5035327;28;20081;-77
2023/06/24 11:21:39;;;;;;;2.40;1.60;;;;;;;;;;5033951;28;20084;-78
2023/06/24 11:24:05;;;;;;;2.45;1.55;;;;;;;;;;5016918;28;20053;-76
2023/06/24 11:26:32;;;;;;;3.58;1.63;;;;;;;;;;5033914;28;20053;-77
2023/06/24 11:28:59;;;;;;;2.28;1.70;;;;;;;;;;5034079;28;20561;-77
2023/06/24 11:31:28;;;;;;;2.03;1.92;;;;;;;;;;5017877;28;20103;-76
2023/06/24 11:33:54;;;;;;;2.30;1.60;;;;;;;;;;5033770;28;20045;-77
2023/06/24 11:36:21;;;;;;;1.42;1.27;;;;;;;;;;5017077;28;20052;-76
2023/06/24 11:38:47;;;;;;;1.92;1.83;;;;;;;;;;5033412;28;20050;-76
2023/06/24 11:41:13;;;;;;;2.15;1.10;;;;;;;;;;5033331;28;20041;-77
2023/06/24 11:43:46;;;;;;;1.30;1.30;;;;;;;;;;5034228;28;20046;-77
2023/06/24 11:46:21;;;;;;;1.73;1.63;;;;;;;;;;5033611;28;20049;-76
2023/06/24 11:48:47;;;;;;;1.50;1.40;;;;;;;;;;5034195;28;20386;-76
2023/06/24 11:51:14;;;;;;;1.48;1.38;;;;;;;;;;5034225;28;20053;-77
2023/06/24 11:53:46;;;;;;;2.58;2.30;;;;;;;;;;5033350;28;20049;-77
2023/06/24 11:56:13;;;;;;;1.80;1.67;;;;;;;;;;5033139;28;20084;-76
2023/06/24 11:58:39;;;;;;;1.48;1.38;;;;;;;;;;5016626;28;20053;-76
2023/06/24 12:01:09;;;;;;;3.13;1.70;;;;;;;;;;5033337;28;20068;-76
2023/06/24 12:03:35;;;;;;;1.85;1.50;;;;;;;;;;5032766;28;20100;-76
2023/06/24 12:06:01;;;;;;;1.50;1.40;;;;;;;;;;5032961;28;20045;-76
2023/06/24 12:08:27;;;;;;;1.45;1.35;;;;;;;;;;5032663;28;20041;-77
2023/06/24 12:10:53;;;;;;;1.77;1.40;;;;;;;;;;5033076;28;20056;-76
2023/06/24 12:13:19;;;;;;;1.80;1.70;;;;;;;;;;5016235;28;20061;-76
2023/06/24 12:15:45;;;;;;;1.88;1.77;;;;;;;;;;5032565;28;20496;-76
2023/06/24 12:18:14;;;;;;;4.43;2.50;;;;;;;;;;5017200;28;20053;-77
2023/06/24 12:20:40;;;;;;;1.75;1.55;;;;;;;;;;5032733;28;20045;-77
2023/06/24 12:23:06;;;;;;;1.50;1.40;;;;;;;;;;5032116;28;20089;-77
2023/06/24 12:25:33;;;;;;;1.75;1.65;;;;;;;;;;5016339;28;20057;-77
2023/06/24 12:27:59;;;;;;;1.70;1.58;;;;;;;;;;5033429;28;20085;-76
2023/06/24 12:30:25;;;;;;;1.45;1.35;;;;;;;;;;5033606;28;20054;-76
2023/06/24 12:32:52;;;;;;;1.10;1.00;;;;;;;;;;5032275;28;20049;-76
2023/06/24 12:35:18;;;;;;;1.48;1.38;;;;;;;;;;5033534;28;20045;-77
2023/06/24 12:37:45;;;;;;;2.05;1.65;;;;;;;;;;5032588;28;20132;-76
2023/06/24 12:40:11;;;;;;;2.25;1.65;;;;;;;;;;5032419;28;20115;-76
2023/06/24 12:42:37;;;;;;;1.80;1.30;;;;;;;;;;5032409;28;20402;-76
2023/06/24 12:45:04;;;;;;;2.55;1.45;;;;;;;;;;5033284;28;20107;-76
2023/06/24 12:47:30;;;;;;;2.35;1.30;;;;;;;;;;5032482;28;20136;-76
2023/06/24 12:49:56;;;;;;;3.30;1.33;;;;;;;;;;5000581;28;20424;-77
2023/06/24 12:52:22;;;;;;;2.00;1.60;;;;;;;;;;5033145;28;20056;-76
2023/06/24 12:54:48;;;;;;;1.90;1.80;;;;;;;;;;5032489;28;20076;-77
2023/06/24 12:57:15;;;;;;;1.90;1.17;;;;;;;;;;5000561;28;20045;-78
2023/06/24 12:59:42;;;;;;;2.50;1.42;;;;;;;;;;5032661;28;20402;-77
2023/06/24 13:02:08;;;;;;;2.13;1.35;;;;;;;;;;5015906;28;20481;-76
2023/06/24 13:04:34;;;;;;;2.25;1.10;;;;;;;;;;5032286;28;20061;-77
2023/06/24 13:07:00;;;;;;;2.17;1.17;;;;;;;;;;5033417;28;20366;-77
2023/06/24 13:09:26;;;;;;;2.67;1.10;;;;;;;;;;5016161;28;20096;-77
2023/06/24 13:11:52;;;;;;;1.92;1.58;;;;;;;;;;5033082;28;20433;-76
2023/06/24 13:14:19;;;;;;;3.40;1.30;;;;;;;;;;5032560;28;20103;-75
2023/06/24 13:16:45;;;;;;;2.13;1.73;;;;;;;;;;5032236;28;20476;-76
2023/06/24 13:19:11;;;;;;;1.60;1.50;;;;;;;;;;5032234;28;20049;-76
2023/06/24 13:21:37;;;;;;;1.30;1.20;;;;;;;;;;5031945;28;20129;-76
2023/06/24 13:24:06;;;;;;;3.03;1.48;;;;;;;;;;5016585;28;20485;-76
2023/06/24 13:26:32;;;;;;;1.75;1.38;;;;;;;;;;5036729;28;20096;-77
2023/06/24 13:28:58;;;;;;;2.08;1.33;;;;;;;;;;5019037;28;20486;-77
2023/06/24 13:31:24;;;;;;;1.90;1.80;;;;;;;;;;5035772;28;20115;-77
2023/06/24 13:33:51;;;;;;;1.60;1.50;;;;;;;;;;5019062;28;20377;-77
2023/06/24 13:36:36;;;;;;;1.80;1.70;;;;;;;;;;5036521;28;20367;-77
2023/06/24 13:39:07;;;;;;;2.50;1.52;;;;;;;;;;5035610;28;20080;-77
2023/06/24 13:41:33;;;;;;;1.40;1.30;;;;;;;;;;5019136;28;20132;-77
2023/06/24 13:44:00;;;;;;;3.45;1.20;;;;;;;;;;5035304;28;20056;-77
2023/06/24 13:46:26;;;;;;;2.30;1.80;;;;;;;;;;5036310;28;20252;-77
2023/06/24 13:48:52;;;;;;;1.45;1.35;;;;;;;;;;5035456;28;20057;-77
2023/06/24 13:51:19;;;;;;;1.33;1.23;;;;;;;;;;5019020;28;20056;-77
2023/06/24 13:53:45;;;;;;;1.23;1.13;;;;;;;;;;5036838;28;20049;-77
2023/06/24 13:56:11;;;;;;;1.17;1.08;;;;;;;;;;5002367;28;20057;-76
2023/06/24 13:58:37;;;;;;;1.85;1.45;;;;;;;;;;5035972;28;20049;-76
2023/06/24 14:01:04;;;;;;;1.48;1.20;;;;;;;;;;5035181;28;20045;-79
2023/06/24 14:03:30;;;;;;;0.85;0.85;;;;;;;;;;5019383;28;20077;-76
2023/06/24 14:05:56;;;;;;;2.17;0.95;;;;;;;;;;5019001;28;20049;-76
2023/06/24 14:08:23;;;;;;;1.92;1.10;;;;;;;;;;5035097;28;20551;-76
2023/06/24 14:10:49;;;;;;;1.17;1.08;;;;;;;;;;5018604;28;20109;-77
2023/06/24 14:13:15;;;;;;;1.20;1.20;;;;;;;;;;5019010;28;20047;-76
2023/06/24 14:15:41;;;;;;;1.30;1.17;;;;;;;;;;5034711;28;20132;-77
2023/06/24 14:18:08;;;;;;;1.38;1.20;;;;;;;;;;5018777;28;20054;-77
2023/06/24 14:20:34;;;;;;;1.27;0.98;;;;;;;;;;5002880;28;20045;-76
2023/06/24 14:23:00;;;;;;;1.63;1.20;;;;;;;;;;5017932;28;20104;-77
2023/06/24 14:25:26;;;;;;;3.15;1.30;;;;;;;;;;5036021;28;20091;-77
2023/06/24 14:27:52;;;;;;;2.65;1.33;;;;;;;;;;5017966;28;20045;-77
2023/06/24 14:30:18;;;;;;;1.55;1.00;;;;;;;;;;5034095;28;20048;-77
2023/06/24 14:32:44;;;;;;;1.95;1.27;;;;;;;;;;5034042;28;20045;-77
2023/06/24 14:35:10;;;;;;;1.58;1.45;;;;;;;;;;5017361;28;20084;-77